createdAt,value
2019-02-14T00:01:11.983Z,43.57
2019-02-14T00:03:42.335Z,42.83
2019-02-14T00:06:12.761Z,42.20
2019-02-14T00:08:43.161Z,43.23
2019-02-14T00:11:13.495Z,40.60
2019-02-14T00:13:43.827Z,41.17
2019-02-14T00:16:14.194Z,44.33
2019-02-14T00:18:44.591Z,44.73
2019-02-14T00:21:17.213Z,41.13
2019-02-14T00:23:47.531Z,37.27
2019-02-14T00:26:17.834Z,38.53
2019-02-14T00:28:48.177Z,40.10
2019-02-14T00:31:18.525Z,41.93
2019-02-14T00:33:48.898Z,41.63
2019-02-14T00:36:19.258Z,37.67
2019-02-14T00:38:49.531Z,39.97
2019-02-14T00:41:19.881Z,40.63
2019-02-14T00:43:50.230Z,39.77
2019-02-14T00:46:20.621Z,39.40
2019-02-14T00:48:52.555Z,42.33
2019-02-14T00:51:22.871Z,38.27
2019-02-14T00:53:53.192Z,37.57
2019-02-14T00:56:23.656Z,39.47
2019-02-14T00:58:53.998Z,39.80
2019-02-14T01:01:24.289Z,37.10
2019-02-14T01:03:55.764Z,36.23
2019-02-14T01:06:26.162Z,33.70
2019-02-14T01:08:56.490Z,37.93
2019-02-14T01:11:26.794Z,39.50
2019-02-14T01:13:57.055Z,34.33
2019-02-14T01:16:27.405Z,33.17
2019-02-14T01:18:57.826Z,33.93
2019-02-14T01:21:28.177Z,37.33
2019-02-14T01:23:58.841Z,29.70
2019-02-14T01:26:29.427Z,30.87
2019-02-14T01:28:59.769Z,30.93
2019-02-14T01:31:31.246Z,33.70
2019-02-14T01:34:02.619Z,32.43
2019-02-14T01:36:32.901Z,31.57
2019-02-14T01:39:04.934Z,37.27
2019-02-14T01:41:35.782Z,33.13
2019-02-14T01:44:07.250Z,32.47
2019-02-14T01:46:40.107Z,36.87
2019-02-14T01:49:10.443Z,31.33
2019-02-14T01:51:40.769Z,31.03
2019-02-14T01:54:11.214Z,36.10
2019-02-14T01:56:42.798Z,31.47
2019-02-14T01:59:13.189Z,38.53
2019-02-14T02:01:43.635Z,36.27
2019-02-14T02:04:13.962Z,37.83
2019-02-14T02:06:44.341Z,33.17
2019-02-14T02:09:14.651Z,28.13
2019-02-14T02:11:45.029Z,25.47
2019-02-14T02:14:16.156Z,27.87
2019-02-14T02:16:46.611Z,28.07
2019-02-14T02:19:17.008Z,28.67
2019-02-14T02:21:47.377Z,30.57
2019-02-14T02:24:18.277Z,30.00
2019-02-14T02:26:48.655Z,43.10
2019-02-14T02:29:19.058Z,41.90
2019-02-14T02:31:49.472Z,48.17
2019-02-14T02:34:21.070Z,49.40
2019-02-14T02:36:51.392Z,50.67
2019-02-14T02:39:21.713Z,47.73
2019-02-14T02:41:52.036Z,43.07
2019-02-14T02:44:22.368Z,43.27
2019-02-14T02:46:52.732Z,42.40
2019-02-14T02:49:23.075Z,48.03
2019-02-14T02:51:53.557Z,45.00
2019-02-14T02:54:23.830Z,42.33
2019-02-14T02:56:54.128Z,44.43
2019-02-14T02:59:24.611Z,44.97
2019-02-14T03:01:54.926Z,45.57
2019-02-14T03:04:25.220Z,45.37
2019-02-14T03:06:55.603Z,36.10
2019-02-14T03:09:28.517Z,33.17
2019-02-14T03:11:59.098Z,34.93
2019-02-14T03:14:29.447Z,33.87
2019-02-14T03:16:59.801Z,31.13
2019-02-14T03:19:31.212Z,33.27
2019-02-14T03:22:01.628Z,34.17
2019-02-14T03:24:32.217Z,39.87
2019-02-14T03:27:02.506Z,43.40
2019-02-14T03:29:32.795Z,44.77
2019-02-14T03:32:03.145Z,56.87
2019-02-14T03:34:33.530Z,49.17
2019-02-14T03:37:03.933Z,49.90
2019-02-14T03:39:34.331Z,39.47
2019-02-14T03:42:04.632Z,42.40
2019-02-14T03:44:34.991Z,52.97
2019-02-14T03:47:05.378Z,60.53
2019-02-14T03:49:35.885Z,59.47
2019-02-14T03:52:06.236Z,49.63
2019-02-14T03:54:36.561Z,52.13
2019-02-14T03:57:06.925Z,53.87
2019-02-14T03:59:37.823Z,51.27
2019-02-14T04:02:08.133Z,61.60
2019-02-14T04:04:40.510Z,49.93
2019-02-14T04:07:10.987Z,52.43
2019-02-14T04:09:41.438Z,50.63
2019-02-14T04:12:11.791Z,46.90
2019-02-14T04:14:42.162Z,52.23
2019-02-14T04:17:12.488Z,51.20
2019-02-14T04:19:42.794Z,49.23
2019-02-14T04:22:13.039Z,56.20
2019-02-14T04:24:44.358Z,61.33
2019-02-14T04:27:14.761Z,62.13
2019-02-14T04:29:45.194Z,64.50
2019-02-14T04:32:15.542Z,73.07
2019-02-14T04:34:45.857Z,70.13
2019-02-14T04:37:16.273Z,74.13
2019-02-14T04:39:46.635Z,78.03
2019-02-14T04:42:17.589Z,87.23
2019-02-14T04:44:47.974Z,85.50
2019-02-14T04:47:18.301Z,82.37
2019-02-14T04:49:49.991Z,87.23
2019-02-14T04:52:20.342Z,84.03
2019-02-14T04:54:50.635Z,79.73
2019-02-14T04:57:21.081Z,90.77
2019-02-14T04:59:52.499Z,80.93
2019-02-14T05:02:22.892Z,88.63
2019-02-14T05:04:53.384Z,93.30
2019-02-14T05:07:25.145Z,93.57
2019-02-14T05:09:55.972Z,87.70
2019-02-14T05:12:26.336Z,84.20
2019-02-14T05:14:56.688Z,89.87
2019-02-14T05:17:26.989Z,91.73
2019-02-14T05:19:57.313Z,102.30
2019-02-14T05:22:27.626Z,86.17
2019-02-14T05:24:57.981Z,96.10
2019-02-14T05:27:28.490Z,83.20
2019-02-14T05:29:58.848Z,92.73
2019-02-14T05:32:30.832Z,103.37
2019-02-14T05:35:01.229Z,100.37
2019-02-14T05:37:31.660Z,100.10
2019-02-14T05:40:01.931Z,99.20
2019-02-14T05:42:32.352Z,99.60
2019-02-14T05:45:04.594Z,101.83
2019-02-14T05:47:35.061Z,93.73
2019-02-14T05:50:06.061Z,95.53
2019-02-14T05:52:36.588Z,94.00
2019-02-14T05:55:08.184Z,87.13
2019-02-14T05:57:38.583Z,83.53
2019-02-14T06:00:10.984Z,75.27
2019-02-14T06:02:41.413Z,83.07
2019-02-14T06:05:13.061Z,88.20
2019-02-14T06:07:43.454Z,70.30
2019-02-14T06:10:13.794Z,67.00
2019-02-14T06:12:45.800Z,69.37
2019-02-14T06:15:17.301Z,68.30
2019-02-14T06:17:47.698Z,73.57
2019-02-14T06:20:18.060Z,71.03
2019-02-14T06:22:48.460Z,67.40
2019-02-14T06:25:18.814Z,73.30
2019-02-14T06:27:49.251Z,75.90
2019-02-14T06:30:19.676Z,84.00
2019-02-14T06:32:50.162Z,81.77
2019-02-14T06:35:22.372Z,84.93
2019-02-14T06:37:52.933Z,87.43
2019-02-14T06:40:23.262Z,85.63
2019-02-14T06:42:53.690Z,86.10
2019-02-14T06:45:26.192Z,118.40
2019-02-14T06:47:56.208Z,144.57
2019-02-14T06:50:34.580Z,139.57
2019-02-14T06:52:59.042Z,156.40
2019-02-14T06:55:29.411Z,153.70
2019-02-14T06:57:59.906Z,162.33
2019-02-14T07:00:30.314Z,152.43
2019-02-14T07:03:00.712Z,167.90
2019-02-14T07:05:31.048Z,181.83
2019-02-14T07:08:01.516Z,160.60
2019-02-14T07:10:32.001Z,166.73
2019-02-14T07:13:02.410Z,136.93
2019-02-14T07:15:32.803Z,137.53
2019-02-14T07:18:03.285Z,126.73
2019-02-14T07:20:33.795Z,119.77
2019-02-14T07:23:04.385Z,141.73
2019-02-14T07:25:36.372Z,131.53
2019-02-14T07:28:08.210Z,103.60
2019-02-14T07:30:38.618Z,116.27
2019-02-14T07:33:08.977Z,111.60
2019-02-14T07:35:40.077Z,127.87
2019-02-14T07:38:12.688Z,120.67
2019-02-14T07:40:43.052Z,121.83
2019-02-14T07:43:13.430Z,126.83
2019-02-14T07:45:43.822Z,139.77
2019-02-14T07:48:14.300Z,149.67
2019-02-14T07:50:44.711Z,158.53
2019-02-14T07:53:15.259Z,132.30
2019-02-14T07:55:45.770Z,128.90
2019-02-14T07:58:16.628Z,134.77
2019-02-14T08:00:49.295Z,137.47
2019-02-14T08:03:19.934Z,131.37
2019-02-14T08:05:50.698Z,123.27
2019-02-14T08:08:21.756Z,127.97
2019-02-14T08:10:52.546Z,135.67
2019-02-14T08:13:22.972Z,141.43
2019-02-14T08:15:56.162Z,130.40
2019-02-14T08:18:26.877Z,117.80
2019-02-14T08:20:57.225Z,101.43
2019-02-14T08:23:28.575Z,112.93
2019-02-14T08:25:59.255Z,108.47
2019-02-14T08:28:37.096Z,122.40
2019-02-14T08:31:07.604Z,111.80
2019-02-14T08:33:38.002Z,122.60
2019-02-14T08:36:08.516Z,129.30
2019-02-14T08:38:38.990Z,124.00
2019-02-14T08:41:09.410Z,106.30
2019-02-14T08:43:40.870Z,118.50
2019-02-14T08:46:11.318Z,111.27
2019-02-14T08:48:41.637Z,133.40
2019-02-14T08:51:15.655Z,135.13
2019-02-14T08:53:46.033Z,124.47
2019-02-14T08:56:16.402Z,160.80
2019-02-14T08:58:46.956Z,164.87
2019-02-14T09:01:17.362Z,162.47
2019-02-14T09:03:49.994Z,157.33
2019-02-14T09:06:20.341Z,173.83
2019-02-14T09:08:50.812Z,152.77
2019-02-14T09:11:23.278Z,143.70
2019-02-14T09:13:53.799Z,142.60
2019-02-14T09:16:24.130Z,135.20
2019-02-14T09:18:56.760Z,150.63
2019-02-14T09:21:29.071Z,140.80
2019-02-14T09:23:59.708Z,140.80
2019-02-14T09:26:30.419Z,146.67
2019-02-14T09:29:00.656Z,139.27
2019-02-14T09:31:31.038Z,132.03
2019-02-14T09:34:01.435Z,121.50
2019-02-14T09:36:31.921Z,109.40
2019-02-14T09:39:02.416Z,96.63
2019-02-14T09:41:34.267Z,107.47
2019-02-14T09:44:04.774Z,87.90
2019-02-14T09:46:35.335Z,91.17
2019-02-14T09:49:05.724Z,92.83
2019-02-14T09:51:36.178Z,82.87
2019-02-14T09:54:07.037Z,82.07
2019-02-14T09:56:37.595Z,92.13
2019-02-14T09:59:08.249Z,84.23
2019-02-14T10:01:38.795Z,77.77
2019-02-14T10:04:09.549Z,90.90
2019-02-14T10:06:39.954Z,84.77
2019-02-14T10:09:10.556Z,62.80
2019-02-14T10:11:41.187Z,76.13
2019-02-14T10:14:11.998Z,48.83
2019-02-14T10:16:42.482Z,54.73
2019-02-14T10:19:12.951Z,50.30
2019-02-14T10:21:44.653Z,44.73
2019-02-14T10:24:15.091Z,53.50
2019-02-14T10:26:45.590Z,51.03
2019-02-14T10:29:16.074Z,54.17
2019-02-14T10:31:46.994Z,53.80
2019-02-14T10:34:17.405Z,58.00
2019-02-14T10:36:47.851Z,42.43
2019-02-14T10:39:18.221Z,41.07
2019-02-14T10:41:48.691Z,38.77
2019-02-14T10:44:19.219Z,40.33
2019-02-14T10:46:49.542Z,45.00
2019-02-14T10:49:19.942Z,40.53
2019-02-14T10:51:50.374Z,42.57
2019-02-14T10:54:20.817Z,50.80
2019-02-14T10:56:51.219Z,68.37
2019-02-14T10:59:21.616Z,64.73
2019-02-14T11:01:51.966Z,59.87
2019-02-14T11:04:22.294Z,55.93
2019-02-14T11:06:52.689Z,55.03
2019-02-14T11:09:23.011Z,59.57
2019-02-14T11:11:53.335Z,70.40
2019-02-14T11:14:29.232Z,54.83
2019-02-14T11:16:55.781Z,63.97
2019-02-14T11:19:26.131Z,69.77
2019-02-14T11:21:56.496Z,58.23
2019-02-14T11:24:28.018Z,65.93
2019-02-14T11:26:58.389Z,57.83
2019-02-14T11:29:29.972Z,58.50
2019-02-14T11:32:01.473Z,57.10
2019-02-14T11:34:32.001Z,50.27
2019-02-14T11:37:02.397Z,52.40
2019-02-14T11:39:32.911Z,49.60
2019-02-14T11:42:03.353Z,47.90
2019-02-14T11:44:39.635Z,47.07
2019-02-14T11:47:07.802Z,51.20
2019-02-14T11:49:38.278Z,52.83
2019-02-14T11:52:08.834Z,57.57
2019-02-14T11:54:39.331Z,62.67
2019-02-14T11:57:09.809Z,51.03
2019-02-14T11:59:40.599Z,53.50
2019-02-14T12:02:11.210Z,62.13
2019-02-14T12:04:41.525Z,66.17
2019-02-14T12:07:11.944Z,70.13
2019-02-14T12:09:42.333Z,55.60
2019-02-14T12:12:12.804Z,50.83
2019-02-14T12:14:43.253Z,59.43
2019-02-14T12:17:13.749Z,57.83
2019-02-14T12:19:44.199Z,59.70
2019-02-14T12:22:16.853Z,61.50
2019-02-14T12:24:47.255Z,56.50
2019-02-14T12:27:17.688Z,51.37
2019-02-14T12:29:48.019Z,66.10
2019-02-14T12:32:18.437Z,60.20
2019-02-14T12:34:48.837Z,59.20
2019-02-14T12:37:19.265Z,66.70
2019-02-14T12:39:49.749Z,65.77
2019-02-14T12:42:20.176Z,63.63
2019-02-14T12:44:50.719Z,57.83
2019-02-14T12:47:21.107Z,70.43
2019-02-14T12:49:53.415Z,78.83
2019-02-14T12:52:23.869Z,81.10
2019-02-14T12:54:54.288Z,85.33
2019-02-14T12:57:24.605Z,78.33
2019-02-14T12:59:54.894Z,65.70
2019-02-14T13:02:25.346Z,74.10
2019-02-14T13:04:55.773Z,75.53
2019-02-14T13:07:26.117Z,74.07
2019-02-14T13:09:56.476Z,76.13
2019-02-14T13:12:27.993Z,77.77
2019-02-14T13:14:58.445Z,83.37
2019-02-14T13:17:28.880Z,76.83
2019-02-14T13:20:00.870Z,66.97
2019-02-14T13:22:31.408Z,65.37
2019-02-14T13:25:01.866Z,63.83
2019-02-14T13:27:32.258Z,63.27
2019-02-14T13:30:02.653Z,67.73
2019-02-14T13:32:33.066Z,68.20
2019-02-14T13:35:03.555Z,81.50
2019-02-14T13:37:34.003Z,81.50
2019-02-14T13:40:04.700Z,71.00
2019-02-14T13:42:37.271Z,68.73
2019-02-14T13:45:10.576Z,78.73
2019-02-14T13:47:41.019Z,79.10
2019-02-14T13:50:12.144Z,71.70
2019-02-14T13:52:45.429Z,67.93
2019-02-14T13:55:15.809Z,64.60
2019-02-14T13:57:46.287Z,69.00
2019-02-14T14:00:22.587Z,68.57
2019-02-14T14:02:52.933Z,67.73
2019-02-14T14:05:23.791Z,68.17
2019-02-14T14:07:54.100Z,79.47
2019-02-14T14:10:24.597Z,82.50
2019-02-14T14:12:55.053Z,73.10
2019-02-14T14:15:25.512Z,83.33
2019-02-14T14:17:56.125Z,78.97
2019-02-14T14:20:26.575Z,92.40
2019-02-14T14:22:58.171Z,79.10
2019-02-14T14:25:28.642Z,80.73
2019-02-14T14:27:59.075Z,94.80
2019-02-14T14:30:29.521Z,82.63
2019-02-14T14:32:59.931Z,83.97
2019-02-14T14:35:30.298Z,74.30
2019-02-14T14:38:03.078Z,74.23
2019-02-14T14:40:33.623Z,85.37
2019-02-14T14:43:21.836Z,91.23
2019-02-14T14:46:14.031Z,92.50
2019-02-14T14:48:44.711Z,91.77
2019-02-14T14:51:18.985Z,102.70
2019-02-14T14:53:49.334Z,86.57
2019-02-14T14:56:20.089Z,94.43
2019-02-14T14:58:50.477Z,94.30
2019-02-14T15:01:21.019Z,88.50
2019-02-14T15:03:52.239Z,98.33
2019-02-14T15:06:22.758Z,99.27
2019-02-14T15:08:53.111Z,95.40
2019-02-14T15:11:23.414Z,101.93
2019-02-14T15:13:54.832Z,100.67
2019-02-14T15:16:25.320Z,99.60
2019-02-14T15:18:55.847Z,102.23
2019-02-14T15:21:26.219Z,93.83
2019-02-14T15:32:39.908Z,98.40
2019-02-14T15:35:10.528Z,110.03
2019-02-14T15:46:45.567Z,82.23
2019-02-14T15:49:16.229Z,94.67
2019-02-14T15:51:46.736Z,99.60
2019-02-14T15:54:17.133Z,113.33
2019-02-14T15:56:48.139Z,115.07
2019-02-14T15:59:21.040Z,112.20
2019-02-14T16:01:53.567Z,105.33
2019-02-14T16:04:24.295Z,95.23
2019-02-14T16:06:54.896Z,98.57
2019-02-14T16:09:25.482Z,95.23
2019-02-14T16:11:57.765Z,94.33
2019-02-14T16:14:28.134Z,99.57
2019-02-14T16:16:58.579Z,87.57
2019-02-14T16:19:29.041Z,95.67
2019-02-14T16:21:59.792Z,86.70
2019-02-14T16:24:30.312Z,95.87
2019-02-14T16:27:03.616Z,93.57
2019-02-14T16:29:38.297Z,96.97
2019-02-14T16:41:37.025Z,109.10
2019-02-14T16:44:08.767Z,92.63
2019-02-14T16:46:39.140Z,110.13
2019-02-14T16:49:09.548Z,92.10
2019-02-14T16:51:39.927Z,102.83
2019-02-14T16:54:10.492Z,100.43
2019-02-14T16:56:41.033Z,109.33
2019-02-14T16:59:11.508Z,103.93
2019-02-14T17:01:44.885Z,100.40
2019-02-14T17:04:23.730Z,106.57
2019-02-14T17:06:54.135Z,115.83
2019-02-14T17:09:25.267Z,130.23
2019-02-14T17:11:55.574Z,120.10
2019-02-14T17:14:27.812Z,117.30
2019-02-14T17:16:58.123Z,122.90
2019-02-14T17:19:30.743Z,123.20
2019-02-14T17:22:01.168Z,130.40
2019-02-14T17:24:31.656Z,108.47
2019-02-14T17:27:02.049Z,111.13
2019-02-14T17:29:32.475Z,110.20
2019-02-14T17:32:03.183Z,118.93
2019-02-14T17:34:33.719Z,122.47
2019-02-14T17:37:04.165Z,113.23
2019-02-14T17:39:37.704Z,120.73
2019-02-14T17:42:08.078Z,113.40
2019-02-14T17:44:38.701Z,118.27
2019-02-14T17:47:09.090Z,109.10
2019-02-14T17:49:40.448Z,113.33
2019-02-14T17:52:10.978Z,118.47
2019-02-14T17:54:41.402Z,115.90
2019-02-14T17:57:11.778Z,103.80
2019-02-14T17:59:43.815Z,108.50
2019-02-14T18:02:15.245Z,103.50
2019-02-14T18:04:46.707Z,107.37
2019-02-14T18:07:18.091Z,97.83
2019-02-14T18:09:49.811Z,113.73
2019-02-14T18:12:22.799Z,110.57
2019-02-14T18:14:55.252Z,109.93
2019-02-14T18:17:27.367Z,110.50
2019-02-14T18:20:01.594Z,105.43
2019-02-14T18:22:32.538Z,106.73
2019-02-14T18:25:09.670Z,111.93
2019-02-14T18:27:43.227Z,98.10
2019-02-14T18:30:41.839Z,92.73
2019-02-14T18:33:12.366Z,83.93
2019-02-14T18:35:47.872Z,90.37
2019-02-14T18:38:20.456Z,82.80
2019-02-14T18:40:53.053Z,87.43
2019-02-14T18:43:27.989Z,85.90
2019-02-14T18:45:58.860Z,92.90
2019-02-14T18:48:37.159Z,85.00
2019-02-14T18:51:15.935Z,91.47
2019-02-14T18:53:48.106Z,90.70
2019-02-14T18:56:21.210Z,85.80
2019-02-14T18:58:56.935Z,91.13
2019-02-14T19:01:30.312Z,93.80
2019-02-14T19:04:13.777Z,92.93
2019-02-14T19:06:49.457Z,100.70
2019-02-14T19:09:24.481Z,91.93
2019-02-14T19:11:55.770Z,92.47
2019-02-14T19:14:32.461Z,93.13
2019-02-14T19:17:09.624Z,90.43
2019-02-14T19:19:41.385Z,103.53
2019-02-14T19:22:16.182Z,92.03
2019-02-14T19:24:48.701Z,97.13
2019-02-14T19:27:19.593Z,98.93
2019-02-14T19:29:52.414Z,88.93
2019-02-14T19:32:29.942Z,87.43
2019-02-14T19:35:08.082Z,88.37
2019-02-14T19:37:44.295Z,87.27
2019-02-14T19:40:15.102Z,89.77
2019-02-14T19:42:54.497Z,79.90
2019-02-14T19:45:25.045Z,79.33
2019-02-14T19:47:57.537Z,91.23
2019-02-14T19:50:27.929Z,99.63
2019-02-14T19:52:59.371Z,91.73
2019-02-14T19:55:31.823Z,86.67
2019-02-14T19:58:03.767Z,88.33
2019-02-14T20:00:37.141Z,85.67
2019-02-14T20:03:11.540Z,92.13
2019-02-14T20:05:45.188Z,80.83
2019-02-14T20:08:21.177Z,92.63
2019-02-14T20:11:01.135Z,91.07
2019-02-14T20:13:36.123Z,88.23
2019-02-14T20:16:11.540Z,83.73
2019-02-14T20:18:45.037Z,88.40
2019-02-14T20:21:16.009Z,92.20
2019-02-14T20:23:49.386Z,98.97
2019-02-14T20:26:22.237Z,109.57
2019-02-14T20:28:58.352Z,111.23
2019-02-14T20:31:28.917Z,114.57
2019-02-14T20:33:59.846Z,105.07
2019-02-14T20:36:33.860Z,100.40
2019-02-14T20:39:09.514Z,109.77
2019-02-14T20:41:46.015Z,109.30
2019-02-14T20:44:18.872Z,117.50
2019-02-14T20:46:50.923Z,122.43
2019-02-14T20:49:22.415Z,135.37
2019-02-14T20:51:56.287Z,144.43
2019-02-14T20:54:27.601Z,131.97
2019-02-14T20:57:02.099Z,126.90
2019-02-14T20:59:32.651Z,120.40
2019-02-14T21:02:03.109Z,124.53
2019-02-14T21:04:33.583Z,113.27
2019-02-14T21:07:05.445Z,107.00
2019-02-14T21:09:41.252Z,107.40
2019-02-14T21:12:16.453Z,99.90
2019-02-14T21:14:51.880Z,108.00
2019-02-14T21:17:23.112Z,104.50
2019-02-14T21:19:54.859Z,104.23
2019-02-14T21:22:27.645Z,118.77
2019-02-14T21:24:58.197Z,118.00
2019-02-14T21:27:28.726Z,102.70
2019-02-14T21:30:00.803Z,98.20
2019-02-14T21:32:34.560Z,99.50
2019-02-14T21:35:06.778Z,94.27
2019-02-14T21:37:37.393Z,95.03
2019-02-14T21:40:10.602Z,91.83
2019-02-14T21:42:45.695Z,93.23
2019-02-14T21:45:16.082Z,92.23
2019-02-14T21:47:48.007Z,99.67
2019-02-14T21:50:21.424Z,103.63
2019-02-14T21:52:58.039Z,99.73
2019-02-14T21:55:28.449Z,109.43
2019-02-14T21:58:03.935Z,111.40
2019-02-14T22:00:33.474Z,99.17
2019-02-14T22:03:04.536Z,103.20
2019-02-14T22:05:39.836Z,93.87
2019-02-14T22:08:13.108Z,97.97
2019-02-14T22:10:44.028Z,106.37
2019-02-14T22:13:14.906Z,98.80
2019-02-14T22:15:45.467Z,97.90
2019-02-14T22:18:16.308Z,106.30
2019-02-14T22:20:50.322Z,104.27
2019-02-14T22:23:24.218Z,107.17
2019-02-14T22:25:56.514Z,99.73
2019-02-14T22:28:29.164Z,96.67
2019-02-14T22:31:00.837Z,100.50
2019-02-14T22:33:31.305Z,95.33
2019-02-14T22:36:01.807Z,97.47
2019-02-14T22:38:32.368Z,98.40
2019-02-14T22:41:04.340Z,96.77
2019-02-14T22:43:35.366Z,92.07
2019-02-14T22:46:05.865Z,93.13
2019-02-14T22:48:39.758Z,105.33
2019-02-14T22:51:10.184Z,98.10
2019-02-14T22:53:42.775Z,102.70
2019-02-14T22:56:14.304Z,97.67
2019-02-14T22:58:44.688Z,99.67
2019-02-14T23:01:21.450Z,103.13
2019-02-14T23:03:52.314Z,106.17
2019-02-14T23:06:25.735Z,109.57
2019-02-14T23:08:56.099Z,106.20
2019-02-14T23:11:29.283Z,104.17
2019-02-14T23:14:00.529Z,90.70
2019-02-14T23:16:30.972Z,95.73
2019-02-14T23:19:10.455Z,87.93
2019-02-14T23:21:41.571Z,98.53
2019-02-14T23:24:14.753Z,96.17
2019-02-14T23:26:45.193Z,91.03
2019-02-14T23:29:19.554Z,87.40
2019-02-14T23:31:54.139Z,77.23
2019-02-14T23:34:26.409Z,78.30
2019-02-14T23:36:58.212Z,83.40
2019-02-14T23:39:29.618Z,92.33
2019-02-14T23:42:00.089Z,87.47
2019-02-14T23:44:30.563Z,89.17
2019-02-14T23:47:00.885Z,88.83
2019-02-14T23:49:31.464Z,78.03
2019-02-14T23:52:03.763Z,75.00
2019-02-14T23:54:34.318Z,73.87
2019-02-14T23:57:06.423Z,74.23
2019-02-14T23:59:38.044Z,72.33
